»·PEaware :: N781BT KSCK-KBFL

N781BT :: KSCK-KBFL

FLIGHT INFORMATION

Flight Status: Arrived
Operator: Privately registered:
United States
More flights under this callsign
Pilot: Jereme M. (20698)
Aircraft: CESSNA 310
(C310)
More flights by this aircraft type
Origin: KSCK Stockton Metro
United States
Destination: KBFL Meadows
United States
More flights between these airports :: More routes between these airports
Route:
File this flight plan on PilotEdge
Remarks:
Altitude:
(Current/Filed)
7,500ft
Speed:
(Current/Filed)
160kts
Departed: 29-Jan-19 05:56 PM
Arrived: 29-Jan-19 07:03 PM
Distance/Time
Traveled:
182nm/1:07
Distance/Time
To Go:
Arrived

Flight Plot

Page will automatically refresh every two minutes.

Flight plan parsing failed; only flown route is shown


Map Options




Map Legend


Flown Route
Filed Route
Departure Airport
Arrival Airport
Navaid (VOR, NDB)
Fix

Horizontal Profiles

Position Reports

Time Latitude Longitude Heading Altitude Ground
Speed
29-Jan-19 17:35 37.893167 -121.244385 206 32ft 0kts
29-Jan-19 17:36 37.893167 -121.244385 206 32ft 0kts
29-Jan-19 17:36 37.893167 -121.244385 206 32ft 0kts
29-Jan-19 17:37 37.893167 -121.244385 206 32ft 0kts
29-Jan-19 17:38 37.893167 -121.244385 206 32ft 0kts
29-Jan-19 17:39 37.893167 -121.244385 206 32ft 0kts
29-Jan-19 17:40 37.893167 -121.244385 206 32ft 0kts
29-Jan-19 17:41 37.893167 -121.244385 206 32ft 0kts
29-Jan-19 17:42 37.893167 -121.244385 206 32ft 0kts
29-Jan-19 17:43 37.893167 -121.244385 206 32ft 0kts
29-Jan-19 17:44 37.893167 -121.244385 206 32ft 0kts
29-Jan-19 17:45 37.893167 -121.244385 206 32ft 0kts
29-Jan-19 17:46 37.893167 -121.244385 206 32ft 0kts
29-Jan-19 17:47 37.893167 -121.244385 206 32ft 0kts
29-Jan-19 17:48 37.893167 -121.244385 206 32ft 0kts
29-Jan-19 17:49 37.893167 -121.244385 206 32ft 0kts
29-Jan-19 17:50 37.893216 -121.244538 357 33ft 5kts
29-Jan-19 17:51 37.893810 -121.243809 88 33ft 8kts
29-Jan-19 17:52 37.891639 -121.238283 114 33ft 14kts
29-Jan-19 17:53 37.891751 -121.237658 44 33ft 0kts
29-Jan-19 17:54 37.892265 -121.237199 311 33ft 0kts
29-Jan-19 17:55 37.901533 -121.257172 255 1016ft 100kts
29-Jan-19 17:56 37.880925 -121.253386 124 2891ft 118kts
29-Jan-19 17:57 37.865945 -121.216148 94 4399ft 123kts
29-Jan-19 17:58 37.861401 -121.172824 92 5893ft 126kts
29-Jan-19 17:59 37.857761 -121.128203 91 7384ft 130kts
29-Jan-19 18:00 37.853922 -121.071831 91 7503ft 177kts
29-Jan-19 18:01 37.847660 -121.009131 100 7498ft 180kts
29-Jan-19 18:02 37.835565 -120.947288 102 7494ft 175kts
29-Jan-19 18:03 37.824205 -120.890920 101 7498ft 160kts
29-Jan-19 18:04 37.812966 -120.835184 102 7498ft 174kts
29-Jan-19 18:05 37.800203 -120.772285 102 7493ft 189kts
29-Jan-19 18:06 37.782168 -120.710372 138 7503ft 192kts
29-Jan-19 18:07 37.741621 -120.665821 139 7492ft 194kts
29-Jan-19 18:08 37.699756 -120.622664 140 7493ft 193kts
29-Jan-19 18:09 37.657886 -120.580282 140 7496ft 194kts
29-Jan-19 18:10 37.615804 -120.537872 141 7497ft 194kts
29-Jan-19 18:11 37.573498 -120.495412 141 7498ft 194kts
29-Jan-19 18:12 37.531421 -120.453467 141 7500ft 191kts
29-Jan-19 18:13 37.489845 -120.411935 141 7500ft 190kts
29-Jan-19 18:14 37.448196 -120.370338 141 7500ft 190kts
29-Jan-19 18:15 37.406977 -120.329018 141 7501ft 192kts
29-Jan-19 18:16 37.364813 -120.286868 141 7499ft 193kts
29-Jan-19 18:17 37.322969 -120.245201 141 7499ft 191kts
29-Jan-19 18:18 37.281362 -120.203864 141 7508ft 190kts
29-Jan-19 18:19 37.239280 -120.162307 141 7508ft 194kts
29-Jan-19 18:20 37.196581 -120.120087 141 7497ft 195kts
29-Jan-19 18:21 37.154327 -120.078196 141 7490ft 192kts
29-Jan-19 18:22 37.112023 -120.036531 141 7490ft 193kts
29-Jan-19 18:23 37.069690 -119.994771 141 7494ft 192kts
29-Jan-19 18:24 37.028313 -119.953973 141 7492ft 191kts
29-Jan-19 18:25 36.986432 -119.912852 141 7494ft 192kts
29-Jan-19 18:26 36.944676 -119.871829 141 7496ft 190kts
29-Jan-19 18:27 36.903497 -119.831237 141 7499ft 188kts
29-Jan-19 18:28 36.858286 -119.800442 157 7499ft 188kts
29-Jan-19 18:29 36.810002 -119.775379 157 7499ft 188kts
29-Jan-19 18:30 36.761456 -119.750082 156 7500ft 190kts
29-Jan-19 18:31 36.712898 -119.724806 156 7502ft 189kts
29-Jan-19 18:32 36.663921 -119.699291 156 7500ft 192kts
29-Jan-19 18:33 36.614499 -119.673565 156 7499ft 191kts
29-Jan-19 18:34 36.565548 -119.648169 156 7499ft 190kts
29-Jan-19 18:35 36.518071 -119.623651 156 7500ft 190kts
29-Jan-19 18:36 36.468987 -119.598140 156 7500ft 192kts
29-Jan-19 18:37 36.419381 -119.572374 156 7500ft 193kts
29-Jan-19 18:38 36.369850 -119.546779 156 7500ft 193kts
29-Jan-19 18:39 36.320171 -119.521162 156 7500ft 193kts
29-Jan-19 18:40 36.270406 -119.495539 156 7500ft 193kts
29-Jan-19 18:41 36.220613 -119.469938 156 7500ft 193kts
29-Jan-19 18:42 36.170835 -119.444382 156 7500ft 193kts
29-Jan-19 18:43 36.121077 -119.418888 156 7500ft 194kts
29-Jan-19 18:44 36.071042 -119.393298 156 7500ft 194kts
29-Jan-19 18:45 36.021239 -119.367958 156 7500ft 192kts
29-Jan-19 18:46 35.971756 -119.342735 157 7500ft 192kts
29-Jan-19 18:47 35.921888 -119.317261 157 7221ft 197kts
29-Jan-19 18:48 35.873483 -119.292638 157 6640ft 194kts
29-Jan-19 18:49 35.822494 -119.267296 157 6022ft 192kts
29-Jan-19 18:50 35.772985 -119.242599 157 5417ft 191kts
29-Jan-19 18:51 35.723864 -119.217862 157 4816ft 189kts
29-Jan-19 18:52 35.676183 -119.191095 155 4212ft 188kts
29-Jan-19 18:53 35.629065 -119.163716 154 3609ft 187kts
29-Jan-19 18:54 35.581765 -119.136135 155 3005ft 188kts
29-Jan-19 18:55 35.534693 -119.108550 154 2404ft 187kts
29-Jan-19 18:56 35.488099 -119.081589 155 1794ft 185kts
29-Jan-19 18:57 35.448747 -119.045594 136 1511ft 170kts
29-Jan-19 18:58 35.415014 -119.007391 136 1507ft 160kts
29-Jan-19 18:59 35.386661 -119.000363 279 1268ft 123kts
29-Jan-19 19:00 35.408137 -119.025268 317 909ft 94kts
29-Jan-19 19:01 35.426041 -119.046788 317 673ft 88kts
29-Jan-19 19:02 35.436373 -119.058349 92 510ft 14kts
29-Jan-19 19:03 35.434895 -119.055286 147 510ft 16kts
29-Jan-19 19:04 35.430825 -119.050319 134 510ft 23kts
29-Jan-19 19:05 35.429445 -119.046522 123 510ft 0kts

Navigation Log

Ident Type
Flight plan parsing failed, navigation log unavailable